createdAt,value
2017-12-05T00:00:00.805Z,14.20
2017-12-05T00:02:28.331Z,15.67
2017-12-05T00:04:55.838Z,19.10
2017-12-05T00:07:23.393Z,13.17
2017-12-05T00:09:50.902Z,26.03
2017-12-05T00:12:18.504Z,14.53
2017-12-05T00:14:46.010Z,8.30
2017-12-05T00:17:13.538Z,14.67
2017-12-05T00:19:41.043Z,15.93
2017-12-05T00:22:08.566Z,19.47
2017-12-05T00:24:36.071Z,25.90
2017-12-05T00:27:04.358Z,17.40
2017-12-05T00:29:32.626Z,29.97
2017-12-05T00:32:00.152Z,15.40
2017-12-05T00:34:27.684Z,12.10
2017-12-05T00:36:55.254Z,15.60
2017-12-05T00:52:13.777Z,18.87
2017-12-05T00:54:42.054Z,16.00
2017-12-05T00:57:09.586Z,19.80
2017-12-05T00:59:37.860Z,25.43
2017-12-05T01:02:05.386Z,20.83
2017-12-05T01:04:32.960Z,18.13
2017-12-05T01:07:00.581Z,19.30
2017-12-05T01:09:28.078Z,15.70
2017-12-05T01:11:55.614Z,22.07
2017-12-05T01:14:23.114Z,14.53
2017-12-05T01:16:50.642Z,14.57
2017-12-05T01:19:18.174Z,10.63
2017-12-05T01:21:45.741Z,16.93
2017-12-05T01:24:13.256Z,17.17
2017-12-05T01:26:40.854Z,17.33
2017-12-05T01:29:09.145Z,13.57
2017-12-05T01:31:36.663Z,25.73
2017-12-05T01:34:04.195Z,29.40
2017-12-05T01:36:31.701Z,22.13
2017-12-05T01:38:59.998Z,16.07
2017-12-05T01:41:27.506Z,18.53
2017-12-05T01:43:55.114Z,18.07
2017-12-05T01:46:22.630Z,19.67
2017-12-05T01:48:50.153Z,14.93
2017-12-05T01:51:17.702Z,16.53
2017-12-05T01:53:45.231Z,12.50
2017-12-05T01:56:13.503Z,18.80
2017-12-05T01:58:42.543Z,16.13
2017-12-05T02:01:10.059Z,17.50
2017-12-05T02:03:37.654Z,18.13
2017-12-05T02:06:05.206Z,20.70
2017-12-05T02:08:33.495Z,15.20
2017-12-05T02:11:00.998Z,21.33
2017-12-05T02:13:28.532Z,20.80
2017-12-05T02:15:56.060Z,14.10
2017-12-05T02:18:23.609Z,12.60
2017-12-05T02:20:51.890Z,16.80
2017-12-05T02:23:20.288Z,16.80
2017-12-05T02:25:47.800Z,14.20
2017-12-05T02:28:15.327Z,16.47
2017-12-05T02:30:42.874Z,26.03
2017-12-05T02:33:10.426Z,9.80
2017-12-05T02:35:37.938Z,23.47
2017-12-05T02:38:05.455Z,17.40
2017-12-05T02:40:44.686Z,13.47
2017-12-05T02:43:12.257Z,10.17
2017-12-05T02:45:39.782Z,13.90
2017-12-05T02:48:08.072Z,14.67
2017-12-05T02:50:36.372Z,19.00
2017-12-05T02:53:03.884Z,16.73
2017-12-05T02:55:31.430Z,24.70
2017-12-05T02:57:58.938Z,23.37
2017-12-05T03:00:26.474Z,14.87
2017-12-05T03:02:54.747Z,15.30
2017-12-05T03:05:22.275Z,17.13
2017-12-05T03:07:49.809Z,14.83
2017-12-05T03:10:17.337Z,17.43
2017-12-05T03:12:45.617Z,22.73
2017-12-05T03:15:13.917Z,16.50
2017-12-05T03:17:41.535Z,16.33
2017-12-05T03:20:09.065Z,14.97
2017-12-05T03:22:36.606Z,20.23
2017-12-05T03:25:04.131Z,20.30
2017-12-05T03:27:32.411Z,13.47
2017-12-05T03:30:00.698Z,10.97
2017-12-05T03:32:28.975Z,12.40
2017-12-05T03:35:08.982Z,15.00
2017-12-05T03:37:36.602Z,14.50
2017-12-05T03:40:04.191Z,15.50
2017-12-05T03:42:31.703Z,14.10
2017-12-05T03:44:59.994Z,17.23
2017-12-05T03:47:27.513Z,14.43
2017-12-05T03:49:55.117Z,22.53
2017-12-05T03:52:22.630Z,12.57
2017-12-05T03:54:50.260Z,12.30
2017-12-05T03:57:17.769Z,14.30
2017-12-05T03:59:45.379Z,20.03
2017-12-05T04:02:12.963Z,16.70
2017-12-05T04:04:40.483Z,13.13
2017-12-05T04:07:08.004Z,12.53
2017-12-05T04:09:35.610Z,12.03
2017-12-05T04:12:03.171Z,11.60
2017-12-05T04:14:30.682Z,14.83
2017-12-05T04:16:58.214Z,11.33
2017-12-05T04:19:25.753Z,14.03
2017-12-05T04:21:53.286Z,11.70
2017-12-05T04:24:21.639Z,16.17
2017-12-05T04:26:49.164Z,11.13
2017-12-05T04:29:16.671Z,13.07
2017-12-05T04:31:44.966Z,16.00
2017-12-05T04:34:13.239Z,10.23
2017-12-05T04:36:41.550Z,19.13
2017-12-05T04:39:09.106Z,14.43
2017-12-05T04:41:36.666Z,14.93
2017-12-05T04:44:04.227Z,18.30
2017-12-05T04:46:31.759Z,17.03
2017-12-05T04:49:00.071Z,15.00
2017-12-05T04:51:27.630Z,14.77
2017-12-05T04:53:55.182Z,15.07
2017-12-05T04:56:22.712Z,14.73
2017-12-05T04:58:51.028Z,10.33
2017-12-05T05:01:18.563Z,15.90
2017-12-05T05:03:46.839Z,16.40
2017-12-05T05:06:15.138Z,14.30
2017-12-05T05:08:42.646Z,14.87
2017-12-05T05:11:10.163Z,18.33
2017-12-05T05:13:37.700Z,20.03
2017-12-05T05:16:05.982Z,19.97
2017-12-05T05:18:34.266Z,17.30
2017-12-05T05:21:01.778Z,13.40
2017-12-05T05:23:29.311Z,15.53
2017-12-05T05:25:56.827Z,14.43
2017-12-05T05:28:25.115Z,11.80
2017-12-05T05:30:53.394Z,15.00
2017-12-05T05:33:21.799Z,13.50
2017-12-05T05:35:49.312Z,12.53
2017-12-05T05:38:17.620Z,16.93
2017-12-05T05:40:45.131Z,14.80
2017-12-05T05:43:12.912Z,12.17
2017-12-05T05:45:40.418Z,14.37
2017-12-05T05:48:07.951Z,15.00
2017-12-05T05:50:35.547Z,10.97
2017-12-05T05:53:03.086Z,15.70
2017-12-05T05:55:30.682Z,16.83
2017-12-05T05:57:58.209Z,13.53
2017-12-05T06:00:25.732Z,13.53
2017-12-05T06:02:54.763Z,19.33
2017-12-05T06:05:22.270Z,18.53
2017-12-05T06:07:49.893Z,17.63
2017-12-05T06:10:17.418Z,19.27
2017-12-05T06:12:44.958Z,17.87
2017-12-05T06:15:12.475Z,16.07
2017-12-05T06:17:40.059Z,18.83
2017-12-05T06:20:07.590Z,17.83
2017-12-05T06:22:35.207Z,20.20
2017-12-05T06:25:02.741Z,17.17
2017-12-05T06:27:30.280Z,17.63
2017-12-05T06:29:57.839Z,14.10
2017-12-05T06:32:25.389Z,20.10
2017-12-05T06:34:52.954Z,10.70
2017-12-05T06:37:20.523Z,10.37
2017-12-05T06:39:48.076Z,12.87
2017-12-05T06:42:15.587Z,11.37
2017-12-05T06:44:43.118Z,13.23
2017-12-05T06:47:10.624Z,10.30
2017-12-05T06:49:38.157Z,11.00
2017-12-05T06:52:05.774Z,17.07
2017-12-05T06:54:33.334Z,12.40
2017-12-05T06:57:00.847Z,14.63
2017-12-05T06:59:28.374Z,14.67
2017-12-05T07:01:55.887Z,10.97
2017-12-05T07:04:23.414Z,13.50
2017-12-05T07:06:50.917Z,14.33
2017-12-05T07:09:19.215Z,14.10
2017-12-05T07:11:46.727Z,12.70
2017-12-05T07:14:14.254Z,20.30
2017-12-05T07:16:41.768Z,14.83
2017-12-05T07:19:10.074Z,20.33
2017-12-05T07:21:37.660Z,15.50
2017-12-05T07:24:05.219Z,18.70
2017-12-05T07:26:32.738Z,15.83
2017-12-05T07:29:00.322Z,21.10
2017-12-05T07:31:27.848Z,16.27
2017-12-05T07:33:55.369Z,28.13
2017-12-05T07:36:23.000Z,21.43
2017-12-05T07:38:50.562Z,18.97
2017-12-05T07:41:18.125Z,20.67
2017-12-05T07:43:45.650Z,21.17
2017-12-05T07:46:13.189Z,15.67
2017-12-05T07:48:40.701Z,18.37
2017-12-05T07:51:08.221Z,18.90
2017-12-05T07:53:36.495Z,20.13
2017-12-05T07:56:04.099Z,19.93
2017-12-05T07:58:31.614Z,21.17
2017-12-05T08:00:59.222Z,29.00
2017-12-05T08:03:26.782Z,16.73
2017-12-05T08:05:54.306Z,20.23
2017-12-05T08:08:21.814Z,21.53
2017-12-05T08:10:49.349Z,19.00
2017-12-05T08:13:16.922Z,21.20
2017-12-05T08:15:44.450Z,19.30
2017-12-05T08:18:12.765Z,21.10
2017-12-05T08:20:40.323Z,21.23
2017-12-05T08:23:07.883Z,21.10
2017-12-05T08:25:35.411Z,22.00
2017-12-05T08:28:02.918Z,26.27
2017-12-05T08:30:30.451Z,25.53
2017-12-05T08:32:58.024Z,24.13
2017-12-05T08:35:26.699Z,24.23
2017-12-05T08:37:54.226Z,27.63
2017-12-05T08:40:21.740Z,28.07
2017-12-05T08:42:49.271Z,30.13
2017-12-05T08:45:17.579Z,28.53
2017-12-05T08:47:45.130Z,29.63
2017-12-05T08:50:12.658Z,42.27
2017-12-05T08:52:40.187Z,31.30
2017-12-05T08:55:07.697Z,33.67
2017-12-05T08:57:35.223Z,36.77
2017-12-05T09:00:02.735Z,35.53
2017-12-05T09:02:30.267Z,43.30
2017-12-05T09:04:58.566Z,38.20
2017-12-05T09:07:26.127Z,35.40
2017-12-05T09:09:53.690Z,35.93
2017-12-05T09:12:21.242Z,33.30
2017-12-05T09:14:48.763Z,36.57
2017-12-05T09:17:17.054Z,38.47
2017-12-05T09:19:44.569Z,32.27
2017-12-05T09:22:12.103Z,34.80
2017-12-05T09:24:39.615Z,31.77
2017-12-05T09:27:07.227Z,36.83
2017-12-05T09:29:34.786Z,33.37
2017-12-05T09:32:02.343Z,37.73
2017-12-05T09:34:29.876Z,38.30
2017-12-05T09:36:57.466Z,41.13
2017-12-05T09:39:24.992Z,38.57
2017-12-05T09:41:52.635Z,35.63
2017-12-05T09:44:20.162Z,37.83
2017-12-05T09:46:47.704Z,36.63
2017-12-05T09:49:15.242Z,37.43
2017-12-05T09:51:42.746Z,31.87
2017-12-05T09:54:10.286Z,34.40
2017-12-05T09:56:37.849Z,31.53
2017-12-05T09:59:05.377Z,36.77
2017-12-05T10:01:32.970Z,35.80
2017-12-05T10:04:00.494Z,37.40
2017-12-05T10:06:28.086Z,30.50
2017-12-05T10:08:56.474Z,31.53
2017-12-05T10:11:23.991Z,33.70
2017-12-05T10:13:52.543Z,31.47
2017-12-05T10:16:20.232Z,34.47
2017-12-05T10:18:47.847Z,32.90
2017-12-05T10:21:15.361Z,31.20
2017-12-05T10:23:42.871Z,29.90
2017-12-05T10:26:10.396Z,24.10
2017-12-05T10:28:38.682Z,29.60
2017-12-05T10:31:06.978Z,26.43
2017-12-05T10:33:34.547Z,29.40
2017-12-05T10:36:02.085Z,29.73
2017-12-05T10:38:30.376Z,22.20
2017-12-05T10:40:57.947Z,39.03
2017-12-05T10:43:25.494Z,31.20
2017-12-05T10:45:53.061Z,28.87
2017-12-05T10:48:20.618Z,29.53
2017-12-05T10:50:48.170Z,25.20
2017-12-05T10:53:16.444Z,31.60
2017-12-05T10:55:44.015Z,26.50
2017-12-05T10:58:11.528Z,29.40
2017-12-05T11:00:39.142Z,27.47
2017-12-05T11:03:06.679Z,28.93
2017-12-05T11:05:35.074Z,26.67
2017-12-05T11:08:03.354Z,26.73
2017-12-05T11:10:30.882Z,27.53
2017-12-05T11:12:58.390Z,27.33
2017-12-05T11:15:25.940Z,33.00
2017-12-05T11:17:53.466Z,27.23
2017-12-05T11:20:20.974Z,28.87
2017-12-05T11:22:48.502Z,30.23
2017-12-05T11:25:16.777Z,32.03
2017-12-05T11:27:45.079Z,31.80
2017-12-05T11:30:12.583Z,30.23
2017-12-05T11:32:40.108Z,27.40
2017-12-05T11:35:07.651Z,28.83
2017-12-05T11:37:35.218Z,24.00
2017-12-05T11:40:02.736Z,31.47
2017-12-05T11:42:30.282Z,24.53
2017-12-05T11:44:57.822Z,29.83
2017-12-05T11:47:25.358Z,30.50
2017-12-05T11:49:52.872Z,29.07
2017-12-05T11:52:20.421Z,26.97
2017-12-05T11:54:47.958Z,36.73
2017-12-05T11:57:15.486Z,29.97
2017-12-05T11:59:43.758Z,33.20
2017-12-05T12:02:12.047Z,32.40
2017-12-05T12:04:39.606Z,32.80
2017-12-05T12:07:07.135Z,32.80
2017-12-05T12:09:35.414Z,30.87
2017-12-05T12:12:03.011Z,39.40
2017-12-05T12:14:30.522Z,33.43
2017-12-05T12:16:58.043Z,30.70
2017-12-05T12:19:25.551Z,30.00
2017-12-05T12:21:53.151Z,38.40
2017-12-05T12:24:20.827Z,33.40
2017-12-05T12:26:48.350Z,40.10
2017-12-05T12:29:16.631Z,34.73
2017-12-05T12:31:44.931Z,30.73
2017-12-05T12:34:12.440Z,41.27
2017-12-05T12:36:40.059Z,37.20
2017-12-05T12:39:07.610Z,41.00
2017-12-05T12:41:35.138Z,41.13
2017-12-05T12:44:02.654Z,35.90
2017-12-05T12:46:30.189Z,33.03
2017-12-05T12:48:57.697Z,42.43
2017-12-05T12:51:25.223Z,42.17
2017-12-05T12:53:52.768Z,42.10
2017-12-05T12:56:20.291Z,36.43
2017-12-05T12:58:47.802Z,35.77
2017-12-05T13:01:15.322Z,40.47
2017-12-05T13:03:43.641Z,41.70
2017-12-05T13:06:11.195Z,37.27
2017-12-05T13:08:38.723Z,48.70
2017-12-05T13:11:07.033Z,42.27
2017-12-05T13:13:34.542Z,47.33
2017-12-05T13:16:02.078Z,39.70
2017-12-05T13:18:29.597Z,39.77
2017-12-05T13:20:57.131Z,44.43
2017-12-05T13:23:24.638Z,49.50
2017-12-05T13:25:52.158Z,42.20
2017-12-05T13:28:19.679Z,45.13
2017-12-05T13:30:47.188Z,38.30
2017-12-05T13:33:15.587Z,57.57
2017-12-05T13:35:43.178Z,42.67
2017-12-05T13:38:10.704Z,36.27
2017-12-05T13:40:38.270Z,41.93
2017-12-05T13:43:05.790Z,46.87
2017-12-05T13:45:33.382Z,39.07
2017-12-05T13:48:01.669Z,42.80
2017-12-05T13:50:29.174Z,40.30
2017-12-05T13:52:56.698Z,43.40
2017-12-05T13:55:24.214Z,42.53
2017-12-05T13:57:52.539Z,45.83
2017-12-05T14:00:20.042Z,40.90
2017-12-05T14:02:47.579Z,46.47
2017-12-05T14:05:15.105Z,40.57
2017-12-05T14:07:42.606Z,42.70
2017-12-05T14:10:10.130Z,34.87
2017-12-05T14:12:37.634Z,34.03
2017-12-05T14:15:05.170Z,37.27
2017-12-05T14:17:32.674Z,31.77
2017-12-05T14:20:00.220Z,32.87
2017-12-05T14:22:27.726Z,37.03
2017-12-05T14:24:55.268Z,31.23
2017-12-05T14:27:23.546Z,44.07
2017-12-05T14:29:51.847Z,39.60
2017-12-05T14:32:19.398Z,33.97
2017-12-05T14:34:46.931Z,35.80
2017-12-05T14:37:15.214Z,32.77
2017-12-05T14:39:43.518Z,31.63
2017-12-05T14:42:11.079Z,31.70
2017-12-05T14:44:38.634Z,30.10
2017-12-05T14:47:06.198Z,32.50
2017-12-05T14:49:33.775Z,36.73
2017-12-05T14:52:01.327Z,31.23
2017-12-05T14:54:28.878Z,37.83
2017-12-05T14:56:56.442Z,32.10
2017-12-05T14:59:23.970Z,37.27
2017-12-05T15:01:51.502Z,36.13
2017-12-05T15:04:19.126Z,33.70
2017-12-05T15:06:46.638Z,36.03
2017-12-05T15:09:14.934Z,32.60
2017-12-05T15:11:43.247Z,30.57
2017-12-05T15:14:10.773Z,32.10
2017-12-05T15:16:39.139Z,34.10
2017-12-05T15:19:08.181Z,28.87
2017-12-05T15:21:35.835Z,31.00
2017-12-05T15:24:03.368Z,33.63
2017-12-05T15:26:30.885Z,31.70
2017-12-05T15:28:58.520Z,37.27
2017-12-05T15:31:26.029Z,36.83
2017-12-05T15:33:53.640Z,34.03
2017-12-05T15:36:21.217Z,36.70
2017-12-05T15:38:48.762Z,35.57
2017-12-05T15:41:16.327Z,36.93
2017-12-05T15:43:43.897Z,36.43
2017-12-05T15:46:11.424Z,35.63
2017-12-05T15:48:39.734Z,36.50
2017-12-05T15:51:07.289Z,48.33
2017-12-05T15:53:34.842Z,35.17
2017-12-05T15:56:02.376Z,35.07
2017-12-05T15:58:30.898Z,29.27
2017-12-05T16:00:58.456Z,34.33
2017-12-05T16:03:25.975Z,32.83
2017-12-05T16:05:54.286Z,36.80
2017-12-05T16:08:21.803Z,33.90
2017-12-05T16:10:49.326Z,35.30
2017-12-05T16:13:16.839Z,36.10
2017-12-05T16:15:45.238Z,33.30
2017-12-05T16:18:12.807Z,28.50
2017-12-05T16:20:40.337Z,37.67
2017-12-05T16:23:07.846Z,36.40
2017-12-05T16:25:35.471Z,34.50
2017-12-05T16:28:03.776Z,35.67
2017-12-05T16:30:31.327Z,37.37
2017-12-05T16:32:58.897Z,32.73
2017-12-05T16:35:26.422Z,34.10
2017-12-05T16:37:54.747Z,36.40
2017-12-05T16:40:22.274Z,38.13
2017-12-05T16:42:50.672Z,36.40
2017-12-05T16:45:18.190Z,35.13
2017-12-05T16:47:45.790Z,36.07
2017-12-05T16:50:13.320Z,40.10
2017-12-05T16:52:41.619Z,31.77
2017-12-05T16:55:09.190Z,34.63
2017-12-05T16:57:36.735Z,30.23
2017-12-05T17:00:05.020Z,33.87
2017-12-05T17:02:32.561Z,33.73
2017-12-05T17:05:00.844Z,31.70
2017-12-05T17:07:29.252Z,36.93
2017-12-05T17:09:56.814Z,31.17
2017-12-05T17:12:24.352Z,41.23
2017-12-05T17:14:52.635Z,36.60
2017-12-05T17:17:20.185Z,34.70
2017-12-05T17:19:48.489Z,39.33
2017-12-05T17:22:16.155Z,41.40
2017-12-05T17:24:43.735Z,35.93
2017-12-05T17:27:11.268Z,30.83
2017-12-05T17:29:38.836Z,38.27
2017-12-05T17:32:06.374Z,31.60
2017-12-05T17:34:34.661Z,30.70
2017-12-05T17:37:02.222Z,33.50
2017-12-05T17:39:29.739Z,36.63
2017-12-05T17:41:57.386Z,28.43
2017-12-05T17:44:24.911Z,31.97
2017-12-05T17:46:52.450Z,28.10
2017-12-05T17:49:20.798Z,29.03
2017-12-05T17:51:48.310Z,31.10
2017-12-05T17:54:15.865Z,25.80
2017-12-05T17:56:43.442Z,28.43
2017-12-05T17:59:11.049Z,28.73
2017-12-05T18:01:38.615Z,28.20
2017-12-05T18:04:06.218Z,26.50
2017-12-05T18:06:33.731Z,29.80
2017-12-05T18:09:01.283Z,35.20
2017-12-05T18:11:28.796Z,32.03
2017-12-05T18:13:56.360Z,28.43
2017-12-05T18:16:23.910Z,30.10
2017-12-05T18:18:51.579Z,30.00
2017-12-05T18:21:19.096Z,30.77
2017-12-05T18:23:46.623Z,34.20
2017-12-05T18:26:14.167Z,38.53
2017-12-05T18:28:41.714Z,29.00
2017-12-05T18:31:09.252Z,30.50
2017-12-05T18:33:37.588Z,31.77
2017-12-05T18:36:05.104Z,33.13
2017-12-05T18:38:33.400Z,27.00
2017-12-05T18:41:00.937Z,34.60
2017-12-05T18:43:29.237Z,39.17
2017-12-05T18:45:56.854Z,34.60
2017-12-05T18:48:24.321Z,36.30
2017-12-05T18:50:51.924Z,29.13
2017-12-05T18:53:19.435Z,33.70
2017-12-05T18:55:46.977Z,33.80
2017-12-05T18:58:14.498Z,28.90
2017-12-05T19:00:42.023Z,27.87
2017-12-05T19:03:09.547Z,31.70
2017-12-05T19:05:37.070Z,27.10
2017-12-05T19:08:04.588Z,26.03
2017-12-05T19:10:32.194Z,29.80
2017-12-05T19:12:59.710Z,27.00
2017-12-05T19:15:27.661Z,29.27
2017-12-05T19:17:55.199Z,31.57
2017-12-05T19:20:22.752Z,25.60
2017-12-05T19:22:50.307Z,33.17
2017-12-05T19:25:17.848Z,33.83
2017-12-05T19:27:46.142Z,32.13
2017-12-05T19:30:13.687Z,30.07
2017-12-05T19:32:41.964Z,32.27
2017-12-05T19:35:10.294Z,28.97
2017-12-05T19:37:37.841Z,30.37
2017-12-05T19:40:05.398Z,30.30
2017-12-05T19:42:32.953Z,31.03
2017-12-05T19:45:00.505Z,30.73
2017-12-05T19:47:28.022Z,32.63
2017-12-05T19:49:55.549Z,36.63
2017-12-05T19:52:23.075Z,35.97
2017-12-05T19:54:50.675Z,37.03
2017-12-05T19:57:18.186Z,31.03
2017-12-05T19:59:46.491Z,36.83
2017-12-05T20:02:14.027Z,33.50
2017-12-05T20:04:42.305Z,36.97
2017-12-05T20:07:10.598Z,32.63
2017-12-05T20:09:38.108Z,32.13
2017-12-05T20:12:05.635Z,34.20
2017-12-05T20:14:33.152Z,31.90
2017-12-05T20:17:01.439Z,36.63
2017-12-05T20:19:29.714Z,35.53
2017-12-05T20:21:57.254Z,32.07
2017-12-05T20:24:24.769Z,37.33
2017-12-05T20:26:52.316Z,39.87
2017-12-05T20:29:19.892Z,32.40
2017-12-05T20:31:47.447Z,32.17
2017-12-05T20:34:14.962Z,31.13
2017-12-05T20:36:42.559Z,34.07
2017-12-05T20:39:10.129Z,37.70
2017-12-05T20:41:37.671Z,34.47
2017-12-05T20:44:05.258Z,34.57
2017-12-05T20:46:32.786Z,26.87
2017-12-05T20:49:01.082Z,32.10
2017-12-05T20:51:28.638Z,30.63
2017-12-05T20:53:56.313Z,33.30
2017-12-05T20:56:23.830Z,28.20
2017-12-05T20:58:52.159Z,27.40
2017-12-05T21:01:19.675Z,31.50
2017-12-05T21:03:48.009Z,29.30
2017-12-05T21:06:15.529Z,32.47
2017-12-05T21:08:43.128Z,29.63
2017-12-05T21:11:10.655Z,36.43
2017-12-05T21:13:38.946Z,33.70
2017-12-05T21:16:06.608Z,29.07
2017-12-05T21:18:34.139Z,32.37
2017-12-05T21:21:02.424Z,35.53
2017-12-05T21:23:30.728Z,34.83
2017-12-05T21:25:58.292Z,33.07
2017-12-05T21:28:25.843Z,33.23
2017-12-05T21:30:53.350Z,33.07
2017-12-05T21:33:20.873Z,33.37
2017-12-05T21:35:48.390Z,29.30
2017-12-05T21:38:16.687Z,35.30
2017-12-05T21:40:44.221Z,32.57
2017-12-05T21:43:11.756Z,34.00
2017-12-05T21:45:39.282Z,35.87
2017-12-05T21:48:06.857Z,30.20
2017-12-05T21:50:34.408Z,36.30
2017-12-05T21:53:01.948Z,36.43
2017-12-05T21:55:29.474Z,40.80
2017-12-05T21:57:57.004Z,34.50
2017-12-05T22:00:24.531Z,35.20
2017-12-05T22:02:52.179Z,39.53
2017-12-05T22:05:20.480Z,34.33
2017-12-05T22:07:48.003Z,32.93
2017-12-05T22:10:15.631Z,37.20
2017-12-05T22:12:43.194Z,32.13
2017-12-05T22:15:10.718Z,32.40
2017-12-05T22:17:38.229Z,34.87
2017-12-05T22:20:05.753Z,34.27
2017-12-05T22:22:33.275Z,32.77
2017-12-05T22:25:01.583Z,27.40
2017-12-05T22:27:29.090Z,32.07
2017-12-05T22:29:56.704Z,28.63
2017-12-05T22:32:24.221Z,30.70
2017-12-05T22:34:51.824Z,38.53
2017-12-05T22:37:19.408Z,37.10
2017-12-05T22:39:46.942Z,33.63
2017-12-05T22:42:14.454Z,32.97
2017-12-05T22:44:41.987Z,30.90
2017-12-05T22:47:09.502Z,34.90
2017-12-05T22:49:37.906Z,35.63
2017-12-05T22:52:05.443Z,31.83
2017-12-05T22:54:33.946Z,29.70
2017-12-05T22:57:01.469Z,29.90
2017-12-05T22:59:28.997Z,32.50
2017-12-05T23:01:56.528Z,34.73
2017-12-05T23:04:24.835Z,33.13
2017-12-05T23:06:52.355Z,35.60
2017-12-05T23:09:20.649Z,34.80
2017-12-05T23:11:48.211Z,29.33
2017-12-05T23:14:15.886Z,35.77
2017-12-05T23:16:43.484Z,38.00
2017-12-05T23:19:11.008Z,33.07
2017-12-05T23:21:38.542Z,31.80
2017-12-05T23:24:06.114Z,33.50
2017-12-05T23:26:33.658Z,36.23
2017-12-05T23:29:01.942Z,34.20
2017-12-05T23:31:29.502Z,34.57
2017-12-05T23:33:57.043Z,34.60
2017-12-05T23:36:25.379Z,32.83
2017-12-05T23:38:53.008Z,29.47
2017-12-05T23:41:20.591Z,31.13
2017-12-05T23:43:48.129Z,35.43
2017-12-05T23:46:15.659Z,34.67
2017-12-05T23:48:43.171Z,32.47
2017-12-05T23:51:10.735Z,38.43
2017-12-05T23:53:38.259Z,37.60
2017-12-05T23:56:06.570Z,33.87
2017-12-05T23:58:34.082Z,42.23
